Terminal Aerodrome Forecast
Issued by NWS

Home | Current Version | Previous Version | Text Only | Print | Product List | Glossary On
Versions: 1 2 3 4 5 6 7 8 9 10 11 12 13 14 15 16 17 18 19 20 21 22 23 24 25 26 27 28 29 30 31 32 33
000
FTUS43 KDLH 191300 AAB
TAFHIB
TAF AMD
KHIB 191301Z 1913/2012 19012G22KT P6SM VCSH BKN015 OVC090
     FM191500 19015G25KT P6SM VCSH BKN015 OVC070
      TEMPO 1916/1920 4SM -TSRA BKN020CB
     FM192200 21010KT P6SM VCSH BKN025
     FM200400 VRB04KT 5SM BR VCSH OVC012=

USA.gov is the U.S. government's official web portal to all federal, state and local government web resources and services.